createdAt,value
2023-03-11T00:00:22.246Z,978.20
2023-03-11T00:01:23.195Z,978.21
2023-03-11T00:02:22.452Z,978.22
2023-03-11T00:03:22.199Z,978.31
2023-03-11T00:04:22.192Z,978.32
2023-03-11T00:05:22.308Z,978.35
2023-03-11T00:06:22.173Z,978.35
2023-03-11T00:07:22.172Z,978.28
2023-03-11T00:08:22.198Z,978.37
2023-03-11T00:09:22.166Z,978.40
2023-03-11T00:10:22.161Z,978.38
2023-03-11T00:11:22.140Z,978.42
2023-03-11T00:12:22.187Z,978.44
2023-03-11T00:13:22.208Z,978.49
2023-03-11T00:14:22.151Z,978.49
2023-03-11T00:15:22.132Z,978.50
2023-03-11T00:16:22.157Z,978.53
2023-03-11T00:17:22.141Z,978.58
2023-03-11T00:18:22.095Z,978.60
2023-03-11T00:19:22.092Z,978.62
2023-03-11T00:20:22.106Z,978.70
2023-03-11T00:21:22.087Z,978.68
2023-03-11T00:22:22.071Z,978.70
2023-03-11T00:23:22.070Z,978.70
2023-03-11T00:24:22.052Z,978.67
2023-03-11T00:25:22.068Z,978.76
2023-03-11T00:26:22.052Z,978.80
2023-03-11T00:27:22.038Z,978.80
2023-03-11T00:28:22.035Z,978.83
2023-03-11T00:29:22.032Z,978.88
2023-03-11T00:30:22.029Z,978.89
2023-03-11T00:31:22.084Z,978.93
2023-03-11T00:32:22.043Z,978.93
2023-03-11T00:33:22.027Z,978.98
2023-03-11T00:34:22.014Z,978.98
2023-03-11T00:35:21.996Z,979.00
2023-03-11T00:36:21.973Z,979.00
2023-03-11T00:37:21.962Z,979.02
2023-03-11T00:38:22.006Z,979.07
2023-03-11T00:39:21.964Z,979.02
2023-03-11T00:40:21.964Z,979.11
2023-03-11T00:41:21.946Z,979.16
2023-03-11T00:42:21.934Z,979.13
2023-03-11T00:43:21.925Z,979.12
2023-03-11T00:44:21.919Z,979.08
2023-03-11T00:45:21.930Z,979.16
2023-03-11T00:46:21.978Z,979.16
2023-03-11T00:47:21.908Z,979.21
2023-03-11T00:48:21.897Z,979.21
2023-03-11T00:49:21.885Z,979.21
2023-03-11T00:50:21.879Z,979.25
2023-03-11T00:51:21.897Z,979.30
2023-03-11T00:52:21.876Z,979.27
2023-03-11T00:53:21.867Z,979.32
2023-03-11T00:54:21.857Z,979.30
2023-03-11T00:55:21.868Z,979.34
2023-03-11T00:56:21.853Z,979.26
2023-03-11T00:57:21.841Z,979.30
2023-03-11T00:58:21.846Z,979.34
2023-03-11T00:59:21.825Z,979.35
2023-03-11T01:00:21.829Z,979.27
2023-03-11T01:01:21.870Z,979.24
2023-03-11T01:02:22.092Z,979.34
2023-03-11T01:03:21.789Z,979.39
2023-03-11T01:04:21.810Z,979.39
2023-03-11T01:05:21.795Z,979.35
2023-03-11T01:06:22.522Z,979.41
2023-03-11T01:07:21.772Z,979.37
2023-03-11T01:08:21.768Z,979.42
2023-03-11T01:09:21.751Z,979.38
2023-03-11T01:10:21.753Z,979.37
2023-03-11T01:11:21.761Z,979.51
2023-03-11T01:12:21.750Z,979.56
2023-03-11T01:13:21.745Z,979.43
2023-03-11T01:14:21.729Z,979.43
2023-03-11T01:15:21.731Z,979.48
2023-03-11T01:16:22.035Z,979.55
2023-03-11T01:17:21.702Z,979.57
2023-03-11T01:18:21.707Z,979.50
2023-03-11T01:19:21.694Z,979.56
2023-03-11T01:20:21.709Z,979.53
2023-03-11T01:21:21.692Z,979.57
2023-03-11T01:22:21.670Z,979.54
2023-03-11T01:23:21.669Z,979.59
2023-03-11T01:24:21.668Z,979.69
2023-03-11T01:25:21.664Z,979.63
2023-03-11T01:26:21.704Z,979.60
2023-03-11T01:27:21.657Z,979.62
2023-03-11T01:28:21.631Z,979.71
2023-03-11T01:29:21.630Z,979.63
2023-03-11T01:30:21.628Z,979.74
2023-03-11T01:31:21.747Z,979.68
2023-03-11T01:32:21.609Z,979.67
2023-03-11T01:33:21.592Z,979.74
2023-03-11T01:34:22.594Z,979.68
2023-03-11T01:35:21.595Z,979.74
2023-03-11T01:36:21.602Z,979.76
2023-03-11T01:37:21.575Z,979.80
2023-03-11T01:38:21.574Z,979.84
2023-03-11T01:39:21.578Z,979.85
2023-03-11T01:40:21.572Z,979.85
2023-03-11T01:41:21.574Z,979.83
2023-03-11T01:42:21.548Z,979.86
2023-03-11T01:43:21.533Z,979.83
2023-03-11T01:44:21.530Z,979.92
2023-03-11T01:45:21.523Z,979.94
2023-03-11T01:46:21.655Z,979.90
2023-03-11T01:47:21.516Z,979.94
2023-03-11T01:48:21.503Z,980.02
2023-03-11T01:49:21.494Z,979.90
2023-03-11T01:50:21.490Z,979.92
2023-03-11T01:51:21.506Z,979.96
2023-03-11T01:52:21.478Z,979.95
2023-03-11T01:53:21.467Z,980.00
2023-03-11T01:54:21.457Z,980.07
2023-03-11T01:55:21.464Z,980.09
2023-03-11T01:56:21.474Z,980.16
2023-03-11T01:57:21.442Z,980.06
2023-03-11T01:58:21.434Z,980.10
2023-03-11T01:59:21.426Z,980.05
2023-03-11T02:00:21.425Z,980.09
2023-03-11T02:01:21.490Z,980.15
2023-03-11T02:02:21.421Z,980.12
2023-03-11T02:03:21.551Z,980.17
2023-03-11T02:04:21.406Z,980.17
2023-03-11T02:05:21.406Z,980.24
2023-03-11T02:06:21.399Z,980.24
2023-03-11T02:07:22.370Z,980.37
2023-03-11T02:08:21.364Z,980.27
2023-03-11T02:09:21.365Z,980.36
2023-03-11T02:10:21.362Z,980.40
2023-03-11T02:11:21.371Z,980.40
2023-03-11T02:12:21.350Z,980.37
2023-03-11T02:13:21.337Z,980.43
2023-03-11T02:14:21.336Z,980.43
2023-03-11T02:15:21.329Z,980.46
2023-03-11T02:16:21.411Z,980.46
2023-03-11T02:17:21.323Z,980.45
2023-03-11T02:18:21.318Z,980.49
2023-03-11T02:19:21.307Z,980.43
2023-03-11T02:20:21.299Z,980.41
2023-03-11T02:21:21.397Z,980.46
2023-03-11T02:22:21.408Z,980.40
2023-03-11T02:23:21.307Z,980.52
2023-03-11T02:24:21.267Z,980.48
2023-03-11T02:25:21.266Z,980.50
2023-03-11T02:26:21.292Z,980.49
2023-03-11T02:27:21.250Z,980.57
2023-03-11T02:28:21.269Z,980.56
2023-03-11T02:29:21.244Z,980.56
2023-03-11T02:30:21.240Z,980.55
2023-03-11T02:31:21.307Z,980.66
2023-03-11T02:32:21.264Z,980.58
2023-03-11T02:33:21.222Z,980.63
2023-03-11T02:34:21.249Z,980.63
2023-03-11T02:35:22.147Z,980.65
2023-03-11T02:36:21.220Z,980.54
2023-03-11T02:37:21.196Z,980.59
2023-03-11T02:38:21.201Z,980.56
2023-03-11T02:39:21.178Z,980.65
2023-03-11T02:40:21.179Z,980.65
2023-03-11T02:41:21.193Z,980.67
2023-03-11T02:42:21.172Z,980.73
2023-03-11T02:43:21.166Z,980.70
2023-03-11T02:44:21.147Z,980.70
2023-03-11T02:45:21.140Z,980.75
2023-03-11T02:46:21.177Z,980.79
2023-03-11T02:47:21.130Z,980.76
2023-03-11T02:48:21.119Z,980.77
2023-03-11T02:49:21.118Z,980.87
2023-03-11T02:50:21.117Z,980.87
2023-03-11T02:51:21.125Z,980.83
2023-03-11T02:52:21.096Z,980.89
2023-03-11T02:53:21.079Z,980.81
2023-03-11T02:54:21.092Z,980.87
2023-03-11T02:55:21.072Z,980.88
2023-03-11T02:56:21.089Z,980.89
2023-03-11T02:57:21.064Z,980.98
2023-03-11T02:58:21.045Z,980.95
2023-03-11T02:59:21.042Z,980.92
2023-03-11T03:00:21.031Z,980.91
2023-03-11T03:01:21.114Z,981.00
2023-03-11T03:02:21.025Z,981.01
2023-03-11T03:03:21.017Z,980.94
2023-03-11T03:04:21.041Z,981.05
2023-03-11T03:05:21.000Z,980.96
2023-03-11T03:06:21.012Z,981.01
2023-03-11T03:07:20.992Z,981.05
2023-03-11T03:08:20.988Z,980.99
2023-03-11T03:09:21.184Z,980.98
2023-03-11T03:10:20.981Z,981.06
2023-03-11T03:11:21.008Z,981.07
2023-03-11T03:12:20.953Z,981.05
2023-03-11T03:13:20.959Z,981.06
2023-03-11T03:14:20.941Z,981.01
2023-03-11T03:15:20.957Z,981.00
2023-03-11T03:16:21.029Z,981.10
2023-03-11T03:17:20.969Z,981.08
2023-03-11T03:18:20.927Z,981.11
2023-03-11T03:19:20.921Z,981.10
2023-03-11T03:20:20.920Z,981.08
2023-03-11T03:21:20.918Z,981.12
2023-03-11T03:22:20.896Z,981.18
2023-03-11T03:23:20.889Z,981.21
2023-03-11T03:24:20.884Z,981.22
2023-03-11T03:25:20.886Z,981.27
2023-03-11T03:26:20.900Z,981.26
2023-03-11T03:27:20.863Z,981.24
2023-03-11T03:28:20.861Z,981.35
2023-03-11T03:29:20.850Z,981.35
2023-03-11T03:30:20.840Z,981.38
2023-03-11T03:31:20.878Z,981.34
2023-03-11T03:32:20.882Z,981.42
2023-03-11T03:33:20.825Z,981.47
2023-03-11T03:34:20.873Z,981.40
2023-03-11T03:35:20.834Z,981.50
2023-03-11T03:36:20.847Z,981.50
2023-03-11T03:37:20.801Z,981.52
2023-03-11T03:38:20.791Z,981.56
2023-03-11T03:39:20.796Z,981.55
2023-03-11T03:40:20.776Z,981.54
2023-03-11T03:41:20.774Z,981.55
2023-03-11T03:42:20.805Z,981.56
2023-03-11T03:43:20.759Z,981.64
2023-03-11T03:44:20.760Z,981.59
2023-03-11T03:45:20.746Z,981.56
2023-03-11T03:46:20.771Z,981.57
2023-03-11T03:47:20.780Z,981.61
2023-03-11T03:48:20.740Z,981.60
2023-03-11T03:49:20.728Z,981.61
2023-03-11T03:50:20.713Z,981.63
2023-03-11T03:51:20.713Z,981.62
2023-03-11T03:52:20.726Z,981.58
2023-03-11T03:53:20.709Z,981.70
2023-03-11T03:54:20.710Z,981.61
2023-03-11T03:55:20.689Z,981.69
2023-03-11T03:56:20.685Z,981.72
2023-03-11T03:57:20.695Z,981.68
2023-03-11T03:58:20.679Z,981.68
2023-03-11T03:59:20.660Z,981.75
2023-03-11T04:00:20.660Z,981.72
2023-03-11T04:01:20.654Z,981.77
2023-03-11T04:02:20.745Z,981.76
2023-03-11T04:03:20.671Z,981.83
2023-03-11T04:04:20.637Z,981.76
2023-03-11T04:05:20.633Z,981.82
2023-03-11T04:06:20.623Z,981.84
2023-03-11T04:07:20.633Z,981.77
2023-03-11T04:08:20.612Z,981.75
2023-03-11T04:09:20.609Z,981.85
2023-03-11T04:10:20.599Z,981.81
2023-03-11T04:11:20.590Z,981.85
2023-03-11T04:12:20.595Z,981.78
2023-03-11T04:13:20.578Z,981.86
2023-03-11T04:14:20.567Z,981.85
2023-03-11T04:15:20.557Z,981.84
2023-03-11T04:16:20.606Z,981.85
2023-03-11T04:17:20.568Z,981.95
2023-03-11T04:18:20.543Z,981.86
2023-03-11T04:19:20.534Z,981.84
2023-03-11T04:20:20.540Z,981.90
2023-03-11T04:21:20.522Z,981.93
2023-03-11T04:22:20.547Z,982.00
2023-03-11T04:23:20.513Z,981.90
2023-03-11T04:24:20.507Z,982.00
2023-03-11T04:25:20.498Z,981.93
2023-03-11T04:26:20.492Z,981.98
2023-03-11T04:27:20.500Z,981.88
2023-03-11T04:28:20.479Z,981.91
2023-03-11T04:29:20.475Z,981.99
2023-03-11T04:30:20.474Z,981.95
2023-03-11T04:31:20.581Z,982.01
2023-03-11T04:32:20.537Z,982.06
2023-03-11T04:33:20.467Z,982.08
2023-03-11T04:34:20.443Z,982.06
2023-03-11T04:35:20.439Z,982.15
2023-03-11T04:36:20.422Z,982.11
2023-03-11T04:37:20.529Z,982.13
2023-03-11T04:38:20.414Z,982.17
2023-03-11T04:39:20.406Z,982.16
2023-03-11T04:40:20.392Z,982.17
2023-03-11T04:41:20.383Z,982.17
2023-03-11T04:42:20.397Z,982.26
2023-03-11T04:43:20.378Z,982.24
2023-03-11T04:44:20.364Z,982.23
2023-03-11T04:45:20.361Z,982.27
2023-03-11T04:46:20.474Z,982.26
2023-03-11T04:47:20.960Z,982.26
2023-03-11T04:48:20.451Z,982.36
2023-03-11T04:49:20.345Z,982.33
2023-03-11T04:50:20.371Z,982.37
2023-03-11T04:51:20.380Z,982.33
2023-03-11T04:52:20.408Z,982.38
2023-03-11T04:53:20.345Z,982.43
2023-03-11T04:54:20.340Z,982.37
2023-03-11T04:55:20.429Z,982.38
2023-03-11T04:56:20.332Z,982.44
2023-03-11T04:57:20.765Z,982.41
2023-03-11T04:58:20.284Z,982.39
2023-03-11T04:59:20.277Z,982.41
2023-03-11T05:00:20.261Z,982.38
2023-03-11T05:01:20.314Z,982.47
2023-03-11T05:02:20.264Z,982.48
2023-03-11T05:03:20.273Z,982.51
2023-03-11T05:04:20.292Z,982.46
2023-03-11T05:05:20.225Z,982.53
2023-03-11T05:06:20.218Z,982.51
2023-03-11T05:07:20.241Z,982.44
2023-03-11T05:08:20.209Z,982.53
2023-03-11T05:09:20.207Z,982.56
2023-03-11T05:10:20.188Z,982.51
2023-03-11T05:11:20.216Z,982.53
2023-03-11T05:12:20.205Z,982.49
2023-03-11T05:13:20.214Z,982.52
2023-03-11T05:14:20.187Z,982.55
2023-03-11T05:15:20.182Z,982.49
2023-03-11T05:16:20.219Z,982.48
2023-03-11T05:17:20.203Z,982.50
2023-03-11T05:18:20.144Z,982.54
2023-03-11T05:19:20.142Z,982.63
2023-03-11T05:20:20.130Z,982.53
2023-03-11T05:21:20.119Z,982.58
2023-03-11T05:22:20.143Z,982.64
2023-03-11T05:23:20.131Z,982.59
2023-03-11T05:24:20.143Z,982.66
2023-03-11T05:25:20.220Z,982.63
2023-03-11T05:26:20.157Z,982.64
2023-03-11T05:27:20.293Z,982.71
2023-03-11T05:28:20.235Z,982.72
2023-03-11T05:29:20.237Z,982.70
2023-03-11T05:30:20.069Z,982.76
2023-03-11T05:31:20.115Z,982.72
2023-03-11T05:32:20.117Z,982.82
2023-03-11T05:33:21.083Z,982.79
2023-03-11T05:34:20.155Z,982.85
2023-03-11T05:35:20.042Z,982.86
2023-03-11T05:36:20.030Z,982.89
2023-03-11T05:37:20.043Z,982.84
2023-03-11T05:38:20.024Z,982.83
2023-03-11T05:39:20.019Z,982.83
2023-03-11T05:40:20.026Z,982.83
2023-03-11T05:41:19.999Z,982.80
2023-03-11T05:42:21.483Z,982.79
2023-03-11T05:43:20.981Z,982.85
2023-03-11T05:44:20.017Z,982.87
2023-03-11T05:45:19.976Z,982.87
2023-03-11T05:46:20.038Z,982.91
2023-03-11T05:47:19.993Z,982.97
2023-03-11T05:48:19.956Z,983.07
2023-03-11T05:49:19.958Z,983.01
2023-03-11T05:50:19.940Z,983.05
2023-03-11T05:51:19.931Z,982.98
2023-03-11T05:52:19.956Z,983.01
2023-03-11T05:53:19.914Z,983.05
2023-03-11T05:54:19.912Z,983.09
2023-03-11T05:55:19.903Z,983.01
2023-03-11T05:56:19.902Z,983.09
2023-03-11T05:57:19.943Z,983.08
2023-03-11T05:58:19.934Z,983.07
2023-03-11T05:59:20.041Z,983.10
2023-03-11T06:00:19.894Z,983.09
2023-03-11T06:01:19.866Z,983.14
2023-03-11T06:02:19.911Z,983.18
2023-03-11T06:03:19.894Z,983.22
2023-03-11T06:04:20.159Z,983.20
2023-03-11T06:05:19.861Z,983.17
2023-03-11T06:06:19.868Z,983.21
2023-03-11T06:07:20.617Z,983.24
2023-03-11T06:08:19.865Z,983.26
2023-03-11T06:09:19.901Z,983.31
2023-03-11T06:10:19.807Z,983.36
2023-03-11T06:11:19.902Z,983.34
2023-03-11T06:12:19.889Z,983.27
2023-03-11T06:13:19.911Z,983.39
2023-03-11T06:14:19.774Z,983.34
2023-03-11T06:15:19.781Z,983.41
2023-03-11T06:16:19.867Z,983.44
2023-03-11T06:17:19.897Z,983.37
2023-03-11T06:18:19.794Z,983.41
2023-03-11T06:19:19.750Z,983.43
2023-03-11T06:20:19.772Z,983.41
2023-03-11T06:21:19.768Z,983.46
2023-03-11T06:22:19.809Z,983.47
2023-03-11T06:23:19.729Z,983.45
2023-03-11T06:24:19.718Z,983.48
2023-03-11T06:25:19.803Z,983.51
2023-03-11T06:26:19.702Z,983.48
2023-03-11T06:27:19.761Z,983.51
2023-03-11T06:28:19.731Z,983.60
2023-03-11T06:29:19.722Z,983.59
2023-03-11T06:30:19.678Z,983.53
2023-03-11T06:31:19.695Z,983.57
2023-03-11T06:32:19.825Z,983.59
2023-03-11T06:33:19.694Z,983.56
2023-03-11T06:34:19.704Z,983.60
2023-03-11T06:35:19.644Z,983.62
2023-03-11T06:36:19.690Z,983.60
2023-03-11T06:37:19.759Z,983.59
2023-03-11T06:38:19.674Z,983.61
2023-03-11T06:39:19.628Z,983.63
2023-03-11T06:40:19.610Z,983.66
2023-03-11T06:41:19.652Z,983.70
2023-03-11T06:42:19.660Z,983.58
2023-03-11T06:43:19.614Z,983.60
2023-03-11T06:44:19.673Z,983.64
2023-03-11T06:45:20.685Z,983.65
2023-03-11T06:46:20.701Z,983.67
2023-03-11T06:47:20.705Z,983.72
2023-03-11T06:48:19.583Z,983.74
2023-03-11T06:49:19.584Z,983.79
2023-03-11T06:50:20.551Z,983.74
2023-03-11T06:51:19.565Z,983.85
2023-03-11T06:52:19.623Z,983.82
2023-03-11T06:53:19.538Z,983.90
2023-03-11T06:54:19.525Z,983.94
2023-03-11T06:55:19.524Z,983.96
2023-03-11T06:56:19.504Z,983.93
2023-03-11T06:57:19.516Z,983.94
2023-03-11T06:58:19.515Z,983.97
2023-03-11T06:59:19.491Z,984.01
2023-03-11T07:00:19.483Z,983.98
2023-03-11T07:01:19.545Z,984.01
2023-03-11T07:02:19.486Z,984.01
2023-03-11T07:03:20.551Z,983.99
2023-03-11T07:04:19.497Z,984.06
2023-03-11T07:05:19.452Z,984.04
2023-03-11T07:06:19.450Z,984.11
2023-03-11T07:07:19.439Z,984.07
2023-03-11T07:08:19.449Z,984.10
2023-03-11T07:09:19.427Z,984.15
2023-03-11T07:10:19.416Z,984.18
2023-03-11T07:11:19.464Z,984.20
2023-03-11T07:12:19.536Z,984.21
2023-03-11T07:13:19.446Z,984.14
2023-03-11T07:14:19.465Z,984.07
2023-03-11T07:15:19.435Z,984.17
2023-03-11T07:16:19.683Z,984.14
2023-03-11T07:17:19.395Z,984.09
2023-03-11T07:18:19.795Z,984.10
2023-03-11T07:19:19.736Z,984.15
2023-03-11T07:20:19.396Z,984.09
2023-03-11T07:21:19.952Z,984.10
2023-03-11T07:22:19.379Z,984.18
2023-03-11T07:23:19.488Z,984.16
2023-03-11T07:24:20.099Z,984.17
2023-03-11T07:25:19.604Z,984.19
2023-03-11T07:26:19.315Z,984.23
2023-03-11T07:27:19.812Z,984.14
2023-03-11T07:28:19.309Z,984.18
2023-03-11T07:29:19.854Z,984.23
2023-03-11T07:30:19.415Z,984.20
2023-03-11T07:31:19.765Z,984.27
2023-03-11T07:32:19.358Z,984.30
2023-03-11T07:33:19.726Z,984.27
2023-03-11T07:34:19.275Z,984.25
2023-03-11T07:35:19.252Z,984.25
2023-03-11T07:36:19.946Z,984.45
2023-03-11T07:37:19.236Z,984.33
2023-03-11T07:38:19.652Z,984.39
2023-03-11T07:39:19.986Z,984.39
2023-03-11T07:40:19.837Z,984.36
2023-03-11T07:41:19.242Z,984.38
2023-03-11T07:42:19.528Z,984.41
2023-03-11T07:43:19.722Z,984.45
2023-03-11T07:44:20.451Z,984.44
2023-03-11T07:45:19.187Z,984.50
2023-03-11T07:46:19.889Z,984.49
2023-03-11T07:47:19.675Z,984.51
2023-03-11T07:48:19.672Z,984.54
2023-03-11T07:49:19.155Z,984.54
2023-03-11T07:50:19.154Z,984.62
2023-03-11T07:51:19.139Z,984.61
2023-03-11T07:52:19.164Z,984.69
2023-03-11T07:53:19.165Z,984.76
2023-03-11T07:54:19.121Z,984.79
2023-03-11T07:55:19.121Z,984.79
2023-03-11T07:56:19.177Z,984.79
2023-03-11T07:57:19.219Z,984.83
2023-03-11T07:58:19.232Z,984.82
2023-03-11T07:59:19.096Z,984.82
2023-03-11T08:00:19.089Z,984.82
2023-03-11T08:01:19.085Z,984.88
2023-03-11T08:02:19.115Z,984.86
2023-03-11T08:03:19.116Z,984.95
2023-03-11T08:04:19.056Z,984.89
2023-03-11T08:05:19.062Z,984.90
2023-03-11T08:06:19.057Z,984.86
2023-03-11T08:07:19.042Z,984.90
2023-03-11T08:08:19.055Z,984.95
2023-03-11T08:09:19.028Z,984.89
2023-03-11T08:10:19.060Z,984.94
2023-03-11T08:11:19.024Z,984.96
2023-03-11T08:12:19.004Z,984.86
2023-03-11T08:13:19.115Z,984.88
2023-03-11T08:14:19.001Z,984.93
2023-03-11T08:15:18.992Z,984.92
2023-03-11T08:16:18.987Z,984.87
2023-03-11T08:17:18.973Z,984.87
2023-03-11T08:18:18.994Z,984.81
2023-03-11T08:19:19.018Z,984.88
2023-03-11T08:20:18.957Z,984.84
2023-03-11T08:21:18.953Z,984.89
2023-03-11T08:22:18.945Z,984.88
2023-03-11T08:23:18.963Z,984.94
2023-03-11T08:24:18.927Z,984.95
2023-03-11T08:25:18.929Z,985.01
2023-03-11T08:26:18.918Z,985.02
2023-03-11T08:27:18.920Z,984.97
2023-03-11T08:28:18.943Z,985.04
2023-03-11T08:29:18.902Z,985.09
2023-03-11T08:30:18.898Z,985.06
2023-03-11T08:31:18.959Z,985.12
2023-03-11T08:32:18.905Z,985.10
2023-03-11T08:33:18.887Z,985.17
2023-03-11T08:34:18.869Z,985.26
2023-03-11T08:35:18.871Z,985.28
2023-03-11T08:36:18.854Z,985.22
2023-03-11T08:37:18.851Z,985.29
2023-03-11T08:38:18.861Z,985.26
2023-03-11T08:39:18.833Z,985.36
2023-03-11T08:40:18.827Z,985.42
2023-03-11T08:41:18.913Z,985.42
2023-03-11T08:42:18.823Z,985.25
2023-03-11T08:43:18.824Z,985.26
2023-03-11T08:44:18.803Z,985.29
2023-03-11T08:45:18.794Z,985.34
2023-03-11T08:46:18.823Z,985.21
2023-03-11T08:47:18.787Z,985.29
2023-03-11T08:48:18.801Z,985.37
2023-03-11T08:49:18.774Z,985.32
2023-03-11T08:50:18.760Z,985.40
2023-03-11T08:51:18.751Z,985.43
2023-03-11T08:52:18.822Z,985.39
2023-03-11T08:53:18.759Z,985.43
2023-03-11T08:54:18.739Z,985.34
2023-03-11T08:55:18.778Z,985.35
2023-03-11T08:56:18.723Z,985.40
2023-03-11T08:57:18.711Z,985.46
2023-03-11T08:58:18.743Z,985.41
2023-03-11T08:59:18.707Z,985.49
2023-03-11T09:00:18.695Z,985.41
2023-03-11T09:01:18.689Z,985.47
2023-03-11T09:02:18.697Z,985.47
2023-03-11T09:03:21.021Z,985.49
2023-03-11T09:04:19.344Z,985.52
2023-03-11T09:05:18.664Z,985.49
2023-03-11T09:06:18.661Z,985.53
2023-03-11T09:07:18.641Z,985.53
2023-03-11T09:08:18.675Z,985.51
2023-03-11T09:09:18.641Z,985.56
2023-03-11T09:10:18.649Z,985.50
2023-03-11T09:11:18.623Z,985.53
2023-03-11T09:12:18.609Z,985.61
2023-03-11T09:13:18.614Z,985.57
2023-03-11T09:14:18.601Z,985.64
2023-03-11T09:15:18.577Z,985.66
2023-03-11T09:16:18.651Z,985.56
2023-03-11T09:17:18.571Z,985.57
2023-03-11T09:18:18.603Z,985.68
2023-03-11T09:19:18.553Z,985.63
2023-03-11T09:20:18.556Z,985.65
2023-03-11T09:21:18.544Z,985.67
2023-03-11T09:22:18.535Z,985.68
2023-03-11T09:23:18.558Z,985.73
2023-03-11T09:24:18.532Z,985.77
2023-03-11T09:25:18.534Z,985.78
2023-03-11T09:26:18.501Z,985.86
2023-03-11T09:27:18.509Z,985.77
2023-03-11T09:28:18.514Z,985.82
2023-03-11T09:29:18.504Z,985.86
2023-03-11T09:30:18.480Z,985.85
2023-03-11T09:31:19.534Z,985.85
2023-03-11T09:32:18.484Z,985.86
2023-03-11T09:33:18.539Z,985.84
2023-03-11T09:34:18.439Z,985.88
2023-03-11T09:35:18.438Z,985.93
2023-03-11T09:36:18.435Z,985.98
2023-03-11T09:37:18.422Z,985.99
2023-03-11T09:38:18.453Z,985.96
2023-03-11T09:39:18.418Z,985.94
2023-03-11T09:40:18.397Z,985.89
2023-03-11T09:41:18.409Z,986.00
2023-03-11T09:42:18.385Z,985.92
2023-03-11T09:43:18.402Z,985.96
2023-03-11T09:44:18.369Z,986.00
2023-03-11T09:45:18.377Z,985.94
2023-03-11T09:46:18.380Z,985.89
2023-03-11T09:47:18.350Z,985.90
2023-03-11T09:48:18.377Z,985.83
2023-03-11T09:49:18.336Z,985.99
2023-03-11T09:50:18.351Z,985.88
2023-03-11T09:51:18.320Z,985.94
2023-03-11T09:52:18.315Z,985.90
2023-03-11T09:53:18.321Z,985.93
2023-03-11T09:54:18.300Z,985.92
2023-03-11T09:55:18.289Z,985.97
2023-03-11T09:56:18.288Z,985.97
2023-03-11T09:57:18.283Z,985.91
2023-03-11T09:58:18.295Z,986.03
2023-03-11T09:59:18.248Z,985.97
2023-03-11T10:00:19.256Z,985.95
2023-03-11T10:01:18.242Z,985.98
2023-03-11T10:02:18.392Z,985.96
2023-03-11T10:03:18.371Z,985.95
2023-03-11T10:04:18.228Z,985.91
2023-03-11T10:05:18.222Z,985.99
2023-03-11T10:06:18.223Z,985.89
2023-03-11T10:07:18.208Z,985.94
2023-03-11T10:08:18.198Z,986.03
2023-03-11T10:09:18.208Z,985.97
2023-03-11T10:10:18.189Z,985.98
2023-03-11T10:11:18.186Z,986.07
2023-03-11T10:12:18.170Z,985.92
2023-03-11T10:13:18.164Z,986.05
2023-03-11T10:14:18.183Z,986.00
2023-03-11T10:15:18.142Z,986.01
2023-03-11T10:16:18.174Z,986.04
2023-03-11T10:17:18.138Z,986.06
2023-03-11T10:18:18.136Z,986.06
2023-03-11T10:19:18.135Z,985.98
2023-03-11T10:20:18.113Z,986.02
2023-03-11T10:21:18.105Z,986.05
2023-03-11T10:22:18.095Z,985.97
2023-03-11T10:23:19.107Z,986.00
2023-03-11T10:24:18.129Z,986.01
2023-03-11T10:25:18.079Z,986.03
2023-03-11T10:26:18.074Z,986.04
2023-03-11T10:27:18.059Z,986.04
2023-03-11T10:28:18.058Z,986.03
2023-03-11T10:29:18.096Z,986.10
2023-03-11T10:30:18.058Z,986.04
2023-03-11T10:31:18.065Z,986.10
2023-03-11T10:32:18.073Z,986.06
2023-03-11T10:33:18.023Z,986.06
2023-03-11T10:34:18.042Z,986.14
2023-03-11T10:35:18.006Z,986.14
2023-03-11T10:36:17.999Z,986.14
2023-03-11T10:37:18.007Z,986.09
2023-03-11T10:38:17.986Z,986.11
2023-03-11T10:39:17.995Z,986.09
2023-03-11T10:40:17.978Z,986.12
2023-03-11T10:41:17.987Z,986.00
2023-03-11T10:42:17.961Z,986.06
2023-03-11T10:43:17.964Z,986.07
2023-03-11T10:44:17.979Z,986.04
2023-03-11T10:45:17.940Z,986.09
2023-03-11T10:46:18.028Z,986.07
2023-03-11T10:47:17.949Z,986.05
2023-03-11T10:48:17.916Z,986.06
2023-03-11T10:49:17.940Z,986.02
2023-03-11T10:50:18.030Z,986.10
2023-03-11T10:51:17.896Z,986.11
2023-03-11T10:52:17.887Z,986.10
2023-03-11T10:53:17.885Z,986.09
2023-03-11T10:54:17.887Z,986.14
2023-03-11T10:55:18.510Z,986.09
2023-03-11T10:56:17.859Z,986.01
2023-03-11T10:57:17.854Z,986.04
2023-03-11T10:58:17.930Z,986.09
2023-03-11T10:59:17.861Z,986.06
2023-03-11T11:00:17.827Z,986.05
2023-03-11T11:01:17.888Z,985.98
2023-03-11T11:02:17.827Z,985.99
2023-03-11T11:03:17.815Z,986.07
2023-03-11T11:04:17.857Z,986.08
2023-03-11T11:05:18.071Z,986.05
2023-03-11T11:06:17.796Z,986.01
2023-03-11T11:07:17.780Z,986.04
2023-03-11T11:08:17.775Z,986.06
2023-03-11T11:09:17.793Z,986.07
2023-03-11T11:10:17.761Z,986.04
2023-03-11T11:11:17.771Z,986.06
2023-03-11T11:12:17.757Z,986.06
2023-03-11T11:13:17.752Z,986.15
2023-03-11T11:14:17.751Z,986.14
2023-03-11T11:15:17.745Z,986.14
2023-03-11T11:16:17.796Z,986.16
2023-03-11T11:17:17.721Z,986.14
2023-03-11T11:18:17.713Z,986.16
2023-03-11T11:19:17.715Z,986.15
2023-03-11T11:20:17.692Z,986.24
2023-03-11T11:21:17.698Z,986.27
2023-03-11T11:22:17.686Z,986.23
2023-03-11T11:23:17.684Z,986.22
2023-03-11T11:24:17.689Z,986.26
2023-03-11T11:25:17.726Z,986.24
2023-03-11T11:26:17.658Z,986.26
2023-03-11T11:27:17.646Z,986.24
2023-03-11T11:28:17.629Z,986.22
2023-03-11T11:29:17.662Z,986.23
2023-03-11T11:30:17.623Z,986.31
2023-03-11T11:31:17.661Z,986.36
2023-03-11T11:32:17.660Z,986.20
2023-03-11T11:33:17.608Z,986.29
2023-03-11T11:34:17.618Z,986.21
2023-03-11T11:35:17.750Z,986.23
2023-03-11T11:36:17.586Z,986.19
2023-03-11T11:37:17.612Z,986.24
2023-03-11T11:38:17.622Z,986.23
2023-03-11T11:39:17.557Z,986.25
2023-03-11T11:40:17.669Z,986.14
2023-03-11T11:41:17.572Z,986.23
2023-03-11T11:42:17.551Z,986.31
2023-03-11T11:43:17.537Z,986.26
2023-03-11T11:44:17.550Z,986.22
2023-03-11T11:45:17.551Z,986.29
2023-03-11T11:46:17.548Z,986.34
2023-03-11T11:47:17.506Z,986.20
2023-03-11T11:48:17.500Z,986.17
2023-03-11T11:49:17.529Z,986.19
2023-03-11T11:50:17.605Z,986.20
2023-03-11T11:51:17.484Z,986.17
2023-03-11T11:52:17.462Z,986.12
2023-03-11T11:53:17.462Z,986.13
2023-03-11T11:54:17.494Z,986.19
2023-03-11T11:55:17.434Z,986.18
2023-03-11T11:56:17.450Z,986.27
2023-03-11T11:57:17.434Z,986.16
2023-03-11T11:58:17.446Z,986.21
2023-03-11T11:59:17.433Z,986.18
2023-03-11T12:00:17.410Z,986.18
2023-03-11T12:01:17.404Z,986.16
2023-03-11T12:02:17.410Z,986.14
2023-03-11T12:03:17.435Z,986.22
2023-03-11T12:04:17.413Z,986.23
2023-03-11T12:05:17.409Z,986.26
2023-03-11T12:06:17.368Z,986.27
2023-03-11T12:07:17.367Z,986.23
2023-03-11T12:08:17.379Z,986.24
2023-03-11T12:09:17.367Z,986.28
2023-03-11T12:10:23.148Z,986.27
2023-03-11T12:11:19.335Z,986.28
2023-03-11T12:12:17.330Z,986.27
2023-03-11T12:13:17.319Z,986.10
2023-03-11T12:14:17.328Z,986.15
2023-03-11T12:15:17.333Z,986.16
2023-03-11T12:16:17.324Z,986.15
2023-03-11T12:17:17.282Z,986.20
2023-03-11T12:18:17.305Z,986.17
2023-03-11T12:19:17.320Z,986.25
2023-03-11T12:20:17.266Z,986.19
2023-03-11T12:21:17.253Z,986.13
2023-03-11T12:22:17.283Z,986.17
2023-03-11T12:23:17.249Z,986.14
2023-03-11T12:24:17.267Z,986.09
2023-03-11T12:25:17.230Z,986.13
2023-03-11T12:26:17.478Z,986.16
2023-03-11T12:27:17.226Z,986.27
2023-03-11T12:28:17.236Z,986.21